Detall de PIREP

Printer-friendly versionPDF version

[2013/04/20 21:55:00]
Flight IATA:CT1006
Pilot Number:026
Company ICAO:CAT
Aircraft Type:DC85/A
PAX:0
Aircraft Registration:CARGO
Departing Airport: LTBA
Destination Airport: LGAV
Alternate Airport:LGTS
Online: VATSIM
Route:BIG UN604 KEPIR
Flight Level:F340
No Slew and time accel
No pause
Crash detect
Detect pilot in Cockpit between each 30 and 45 minutes
21:55 Zero fuel Weight: 224931 Lbs, Fuel Weight: 27001 Lbs
21:55 VATSIM:LTBA 202120Z 32005KT CAVOK 08/06 Q1016 NOSIG
21:55 VATSIM:LGAV 202120Z VRB01KT 9999 FEW025 12/02 Q1017 NOSIG
21:55 VOICE CATALONIAN / ALMOGAVERS ROUTE LEG4
21:57 Parking Brakes off
22:10 Take-off
22:10 Take off Weight: 250573 Lbs
22:10 Wind: 317º @ 005 Knots Heading: 357º
22:10 POS N40º 59´ 33´´ E028º 48´ 30´´
22:10 Flaps:2 at 170 Knots
22:10 Gear Up: 173 Knots
22:10 Flaps:1 at 176 Knots
22:12 Flaps:0 at 211 Knots
22:25 Wind:001º@018 Knots Heading: 202º Ground Speed: 415 Knots Altitude 29097 ft
22:31 TOC
22:31 Fuel Weight: 18974 Lb
22:32 TOD
22:32 Fuel Weight: 18806 Lb
22:33 TOC
22:33 Fuel Weight: 18591 Lb
22:40 Wind:001º@035 Knots Heading: 239º Ground Speed: 504 Knots Altitude 33812 ft
22:40 TOD
22:40 Fuel Weight: 17103 Lb
22:55 Wind:344º@028 Knots Heading: 222º Ground Speed: 363 Knots Altitude 11450 ft
22:59 Flaps:1 at 263 Knots
23:04 Flaps:2 at 161 Knots
23:04 Gear Down: 164 Knots
23:05 Flaps:3 at 172 Knots
23:06 Flaps:4 at 153 Knots
23:06 Flaps:5 at 141 Knots
23:08 TouchDown:Rate -286 ft/min Speed: 123 Knots
23:08 VATSIM:LGAV 202250Z 30003KT 9999 FEW025 11/02 Q1017 NOSIG
23:08 Land
23:08 Wind:334º@004 Knots
23:08 Heading: 036º
23:08 Flight Duration: 00:58
23:08 Landing Weight: 238329 Lbs
23:08 POS N37º 56´ 13´´ E023º 56´ 00´´
23:18 Parking brakes on
23:18 Block to Block Duration: 01:21
23:18 Final Fuel: 12367 Lbls
23:18 Spent Fuel: 14634 Lbls
23:18 Flight Length: 360 NM
23:18 TOD Land Length: 156 NM

Exportar CSV

Powered by Drupal - Modified by Danger4k